sensor_id;sensor_type;location;lat;lon;timestamp;pressure;altitude;pressure_sealevel;temperature;humidity
66945;BME280;53853;51.982;5.928;2023-02-07T00:00:16;103942.81;;;3.44;77.64
66945;BME280;53853;51.982;5.928;2023-02-07T00:02:46;103932.31;;;3.41;77.61
66945;BME280;53853;51.982;5.928;2023-02-07T00:05:19;103929.72;;;3.39;77.99
66945;BME280;53853;51.982;5.928;2023-02-07T00:07:48;103925.34;;;3.38;78.67
66945;BME280;53853;51.982;5.928;2023-02-07T00:10:18;103935.91;;;3.38;79.23
66945;BME280;53853;51.982;5.928;2023-02-07T00:12:47;103927.06;;;3.39;78.72
66945;BME280;53853;51.982;5.928;2023-02-07T00:15:17;103922.69;;;3.40;78.92
66945;BME280;53853;51.982;5.928;2023-02-07T00:17:47;103926.19;;;3.40;78.83
66945;BME280;53853;51.982;5.928;2023-02-07T00:20:19;103923.56;;;3.39;78.61
66945;BME280;53853;51.982;5.928;2023-02-07T00:22:51;103917.50;;;3.35;77.98
66945;BME280;53853;51.982;5.928;2023-02-07T00:25:20;103929.91;;;3.29;77.75
66945;BME280;53853;51.982;5.928;2023-02-07T00:27:50;103925.59;;;3.24;77.76
66945;BME280;53853;51.982;5.928;2023-02-07T00:30:20;103931.75;;;3.22;78.12
66945;BME280;53853;51.982;5.928;2023-02-07T00:32:49;103928.25;;;3.21;78.31
66945;BME280;53853;51.982;5.928;2023-02-07T00:35:21;103935.34;;;3.19;77.95
66945;BME280;53853;51.982;5.928;2023-02-07T00:37:51;103931.88;;;3.17;78.06
66945;BME280;53853;51.982;5.928;2023-02-07T00:40:21;103927.53;;;3.13;77.63
66945;BME280;53853;51.982;5.928;2023-02-07T00:42:50;103925.81;;;3.11;77.87
66945;BME280;53853;51.982;5.928;2023-02-07T00:45:20;103932.91;;;3.07;78.70
66945;BME280;53853;51.982;5.928;2023-02-07T00:47:49;103925.91;;;3.04;79.14
66945;BME280;53853;51.982;5.928;2023-02-07T00:50:21;103926.78;;;3.05;79.02
66945;BME280;53853;51.982;5.928;2023-02-07T00:52:51;103920.66;;;3.03;78.69
66945;BME280;53853;51.982;5.928;2023-02-07T00:55:21;103924.19;;;3.02;78.59
66945;BME280;53853;51.982;5.928;2023-02-07T00:57:50;103929.50;;;2.99;78.41
66945;BME280;53853;51.982;5.928;2023-02-07T01:00:20;103928.69;;;2.95;78.73
66945;BME280;53853;51.982;5.928;2023-02-07T01:02:49;103919.97;;;2.90;78.72
66945;BME280;53853;51.982;5.928;2023-02-07T01:05:22;103920.03;;;2.85;79.10
66945;BME280;53853;51.982;5.928;2023-02-07T01:07:51;103923.63;;;2.83;78.99
66945;BME280;53853;51.982;5.928;2023-02-07T01:10:21;103928.84;;;2.84;79.25
66945;BME280;53853;51.982;5.928;2023-02-07T01:12:50;103926.22;;;2.84;79.23
66945;BME280;53853;51.982;5.928;2023-02-07T01:15:22;103916.56;;;2.83;79.00
66945;BME280;53853;51.982;5.928;2023-02-07T01:17:52;103916.63;;;2.80;78.24
66945;BME280;53853;51.982;5.928;2023-02-07T01:20:24;103914.97;;;2.75;78.24
66945;BME280;53853;51.982;5.928;2023-02-07T01:22:54;103912.41;;;2.70;78.46
66945;BME280;53853;51.982;5.928;2023-02-07T01:25:23;103905.38;;;2.69;78.66
66945;BME280;53853;51.982;5.928;2023-02-07T01:27:53;103906.28;;;2.66;78.43
66945;BME280;53853;51.982;5.928;2023-02-07T01:30:22;103922.16;;;2.63;78.36
66945;BME280;53853;51.982;5.928;2023-02-07T01:32:52;103923.06;;;2.61;78.45
66945;BME280;53853;51.982;5.928;2023-02-07T01:35:24;103922.22;;;2.59;78.78
66945;BME280;53853;51.982;5.928;2023-02-07T01:37:54;103931.00;;;2.56;78.57
66945;BME280;53853;51.982;5.928;2023-02-07T01:40:23;103934.56;;;2.52;78.31
66945;BME280;53853;51.982;5.928;2023-02-07T01:42:53;103938.13;;;2.51;78.70
66945;BME280;53853;51.982;5.928;2023-02-07T01:45:24;103931.13;;;2.47;78.05
66945;BME280;53853;51.982;5.928;2023-02-07T01:47:57;103923.31;;;2.42;78.58
66945;BME280;53853;51.982;5.928;2023-02-07T01:50:31;103926.88;;;2.38;78.65
66945;BME280;53853;51.982;5.928;2023-02-07T01:53:01;103928.63;;;2.36;78.84
66945;BME280;53853;51.982;5.928;2023-02-07T01:55:32;103924.31;;;2.33;79.35
66945;BME280;53853;51.982;5.928;2023-02-07T01:58:04;103933.91;;;2.34;79.24
66945;BME280;53853;51.982;5.928;2023-02-07T02:00:35;103930.44;;;2.34;78.73
66945;BME280;53853;51.982;5.928;2023-02-07T02:03:06;103932.25;;;2.30;77.91
66945;BME280;53853;51.982;5.928;2023-02-07T02:05:39;103934.94;;;2.26;77.77
66945;BME280;53853;51.982;5.928;2023-02-07T02:08:10;103938.44;;;2.23;77.89
66945;BME280;53853;51.982;5.928;2023-02-07T02:10:53;103939.38;;;2.21;78.08
66945;BME280;53853;51.982;5.928;2023-02-07T02:13:27;103922.69;;;2.20;77.90
66945;BME280;53853;51.982;5.928;2023-02-07T02:16:00;103928.91;;;2.17;78.10
66945;BME280;53853;51.982;5.928;2023-02-07T02:18:36;103925.38;;;2.15;77.84
66945;BME280;53853;51.982;5.928;2023-02-07T02:21:19;103934.19;;;2.14;77.86
66945;BME280;53853;51.982;5.928;2023-02-07T02:24:00;103935.06;;;2.15;78.07
66945;BME280;53853;51.982;5.928;2023-02-07T02:29:26;103922.81;;;2.11;77.64
66945;BME280;53853;51.982;5.928;2023-02-07T02:34:45;103939.53;;;2.08;78.45
66945;BME280;53853;51.982;5.928;2023-02-07T02:37:21;103945.63;;;2.10;78.43
66945;BME280;53853;51.982;5.928;2023-02-07T02:39:55;103935.09;;;2.12;78.56
66945;BME280;53853;51.982;5.928;2023-02-07T02:42:31;103938.56;;;2.14;78.15
66945;BME280;53853;51.982;5.928;2023-02-07T02:45:02;103950.00;;;2.13;78.11
66945;BME280;53853;51.982;5.928;2023-02-07T02:47:33;103938.56;;;2.14;78.17
66945;BME280;53853;51.982;5.928;2023-02-07T02:50:08;103932.44;;;2.15;77.96
66945;BME280;53853;51.982;5.928;2023-02-07T02:52:38;103942.13;;;2.11;77.31
66945;BME280;53853;51.982;5.928;2023-02-07T02:55:35;103941.31;;;2.06;77.67
66945;BME280;53853;51.982;5.928;2023-02-07T02:58:09;103939.56;;;2.05;77.79
66945;BME280;53853;51.982;5.928;2023-02-07T03:00:47;103938.72;;;2.02;77.47
66945;BME280;53853;51.982;5.928;2023-02-07T03:03:28;103939.63;;;1.99;77.52
66945;BME280;53853;51.982;5.928;2023-02-07T03:06:08;103944.03;;;1.97;77.86
66945;BME280;53853;51.982;5.928;2023-02-07T03:08:43;103944.91;;;1.96;77.99
66945;BME280;53853;51.982;5.928;2023-02-07T03:11:14;103944.97;;;1.91;78.00
66945;BME280;53853;51.982;5.928;2023-02-07T03:13:48;103945.00;;;1.88;78.06
66945;BME280;53853;51.982;5.928;2023-02-07T03:16:20;103944.16;;;1.85;77.77
66945;BME280;53853;51.982;5.928;2023-02-07T03:18:53;103950.31;;;1.82;77.13
66945;BME280;53853;51.982;5.928;2023-02-07T03:21:29;103932.88;;;1.76;77.23
66945;BME280;53853;51.982;5.928;2023-02-07T03:24:00;103936.41;;;1.71;77.49
66945;BME280;53853;51.982;5.928;2023-02-07T03:26:33;103927.69;;;1.67;77.98
66945;BME280;53853;51.982;5.928;2023-02-07T03:29:04;103930.34;;;1.66;77.75
66945;BME280;53853;51.982;5.928;2023-02-07T03:31:37;103925.97;;;1.65;78.15
66945;BME280;53853;51.982;5.928;2023-02-07T03:34:10;103919.88;;;1.61;78.09
66945;BME280;53853;51.982;5.928;2023-02-07T03:36:45;103915.53;;;1.55;78.18
66945;BME280;53853;51.982;5.928;2023-02-07T03:39:18;103922.59;;;1.52;78.04
66945;BME280;53853;51.982;5.928;2023-02-07T03:41:48;103924.38;;;1.47;78.01
66945;BME280;53853;51.982;5.928;2023-02-07T03:44:21;103927.91;;;1.45;78.15
66945;BME280;53853;51.982;5.928;2023-02-07T03:46:52;103927.88;;;1.47;78.45
66945;BME280;53853;51.982;5.928;2023-02-07T03:49:22;103931.34;;;1.51;78.27
66945;BME280;53853;51.982;5.928;2023-02-07T03:51:54;103920.81;;;1.52;77.90
66945;BME280;53853;51.982;5.928;2023-02-07T03:54:23;103919.94;;;1.55;77.52
66945;BME280;53853;51.982;5.928;2023-02-07T03:56:53;103924.34;;;1.53;77.61
66945;BME280;53853;51.982;5.928;2023-02-07T03:59:22;103931.31;;;1.54;77.52
66945;BME280;53853;51.982;5.928;2023-02-07T04:01:52;103927.84;;;1.52;77.46
66945;BME280;53853;51.982;5.928;2023-02-07T04:04:21;103926.09;;;1.51;77.37
66945;BME280;53853;51.982;5.928;2023-02-07T04:06:54;103918.19;;;1.51;77.68
66945;BME280;53853;51.982;5.928;2023-02-07T04:09:24;103919.09;;;1.50;76.95
66945;BME280;53853;51.982;5.928;2023-02-07T04:11:54;103931.41;;;1.46;76.75
66945;BME280;53853;51.982;5.928;2023-02-07T04:14:24;103923.56;;;1.43;76.74
66945;BME280;53853;51.982;5.928;2023-02-07T04:16:53;103925.31;;;1.41;76.48
66945;BME280;53853;51.982;5.928;2023-02-07T04:19:23;103921.84;;;1.36;76.80
66945;BME280;53853;51.982;5.928;2023-02-07T04:21:55;103919.25;;;1.34;77.04
66945;BME280;53853;51.982;5.928;2023-02-07T04:24:24;103918.38;;;1.32;77.15
66945;BME280;53853;51.982;5.928;2023-02-07T04:26:57;103915.75;;;1.32;77.19
66945;BME280;53853;51.982;5.928;2023-02-07T04:29:27;103915.75;;;1.32;77.17
66945;BME280;53853;51.982;5.928;2023-02-07T04:31:56;103916.63;;;1.31;76.79
66945;BME280;53853;51.982;5.928;2023-02-07T04:34:26;103904.44;;;1.25;76.72
66945;BME280;53853;51.982;5.928;2023-02-07T04:36:58;103894.81;;;1.23;76.63
66945;BME280;53853;51.982;5.928;2023-02-07T04:39:27;103909.75;;;1.19;76.51
66945;BME280;53853;51.982;5.928;2023-02-07T04:41:57;103908.88;;;1.16;76.99
66945;BME280;53853;51.982;5.928;2023-02-07T04:44:26;103915.91;;;1.14;76.98
66945;BME280;53853;51.982;5.928;2023-02-07T04:46:56;103907.16;;;1.15;77.02
66945;BME280;53853;51.982;5.928;2023-02-07T04:49:26;103913.28;;;1.14;76.54
66945;BME280;53853;51.982;5.928;2023-02-07T04:51:58;103899.31;;;1.08;76.91
66945;BME280;53853;51.982;5.928;2023-02-07T04:54:27;103896.72;;;1.05;76.88
66945;BME280;53853;51.982;5.928;2023-02-07T04:56:57;103898.50;;;1.03;77.17
66945;BME280;53853;51.982;5.928;2023-02-07T04:59:26;103902.00;;;1.02;77.32
66945;BME280;53853;51.982;5.928;2023-02-07T05:01:56;103893.28;;;0.99;77.06
66945;BME280;53853;51.982;5.928;2023-02-07T05:04:25;103901.16;;;0.97;76.80
66945;BME280;53853;51.982;5.928;2023-02-07T05:06:58;103899.44;;;0.93;77.07
66945;BME280;53853;51.982;5.928;2023-02-07T05:09:27;103892.47;;;0.90;77.28
66945;BME280;53853;51.982;5.928;2023-02-07T05:11:57;103888.94;;;0.90;77.16
66945;BME280;53853;51.982;5.928;2023-02-07T05:14:26;103889.84;;;0.89;77.08
66945;BME280;53853;51.982;5.928;2023-02-07T05:16:56;103894.22;;;0.87;77.15
66945;BME280;53853;51.982;5.928;2023-02-07T05:19:25;103885.50;;;0.83;77.20
66945;BME280;53853;51.982;5.928;2023-02-07T05:21:58;103891.63;;;0.84;77.45
66945;BME280;53853;51.982;5.928;2023-02-07T05:24:27;103884.66;;;0.81;76.81
66945;BME280;53853;51.982;5.928;2023-02-07T05:26:57;103889.03;;;0.78;76.97
66945;BME280;53853;51.982;5.928;2023-02-07T05:29:26;103901.31;;;0.77;77.27
66945;BME280;53853;51.982;5.928;2023-02-07T05:31:56;103902.16;;;0.78;77.68
66945;BME280;53853;51.982;5.928;2023-02-07T05:34:38;103902.16;;;0.78;77.25
66945;BME280;53853;51.982;5.928;2023-02-07T05:37:10;103906.56;;;0.72;76.54
66945;BME280;53853;51.982;5.928;2023-02-07T05:39:39;103910.13;;;0.68;77.05
66945;BME280;53853;51.982;5.928;2023-02-07T05:42:09;103918.88;;;0.66;77.42
66945;BME280;53853;51.982;5.928;2023-02-07T05:44:38;103925.88;;;0.65;77.04
66945;BME280;53853;51.982;5.928;2023-02-07T05:47:08;103921.50;;;0.64;77.22
66945;BME280;53853;51.982;5.928;2023-02-07T05:49:37;103928.50;;;0.65;77.37
66945;BME280;53853;51.982;5.928;2023-02-07T05:52:11;103940.75;;;0.66;77.57
66945;BME280;53853;51.982;5.928;2023-02-07T05:54:40;103943.34;;;0.68;77.33
66945;BME280;53853;51.982;5.928;2023-02-07T05:57:10;103939.88;;;0.66;77.05
66945;BME280;53853;51.982;5.928;2023-02-07T05:59:39;103950.38;;;0.64;77.07
66945;BME280;53853;51.982;5.928;2023-02-07T06:02:09;103944.28;;;0.62;77.18
66945;BME280;53853;51.982;5.928;2023-02-07T06:04:38;103943.38;;;0.60;76.87
66945;BME280;53853;51.982;5.928;2023-02-07T06:07:10;103946.91;;;0.59;76.89
66945;BME280;53853;51.982;5.928;2023-02-07T06:09:40;103951.25;;;0.60;77.50
66945;BME280;53853;51.982;5.928;2023-02-07T06:12:09;103951.25;;;0.62;77.86
66945;BME280;53853;51.982;5.928;2023-02-07T06:14:39;103955.63;;;0.63;77.07
66945;BME280;53853;51.982;5.928;2023-02-07T06:17:08;103962.66;;;0.62;77.19
66945;BME280;53853;51.982;5.928;2023-02-07T06:19:38;103965.28;;;0.62;77.01
66945;BME280;53853;51.982;5.928;2023-02-07T06:22:08;103955.66;;;0.61;76.44
66945;BME280;53853;51.982;5.928;2023-02-07T06:24:40;103959.16;;;0.59;76.56
66945;BME280;53853;51.982;5.928;2023-02-07T06:27:09;103953.91;;;0.59;76.89
66945;BME280;53853;51.982;5.928;2023-02-07T06:29:39;103948.63;;;0.60;77.14
66945;BME280;53853;51.982;5.928;2023-02-07T06:32:09;103965.28;;;0.59;77.17
66945;BME280;53853;51.982;5.928;2023-02-07T06:34:38;103956.53;;;0.57;77.32
66945;BME280;53853;51.982;5.928;2023-02-07T06:37:08;103956.56;;;0.56;77.69
66945;BME280;53853;51.982;5.928;2023-02-07T06:39:40;103960.03;;;0.58;77.86
66945;BME280;53853;51.982;5.928;2023-02-07T06:42:09;103955.66;;;0.61;78.01
66945;BME280;53853;51.982;5.928;2023-02-07T06:44:39;103946.91;;;0.62;78.21
66945;BME280;53853;51.982;5.928;2023-02-07T06:47:08;103950.41;;;0.61;77.75
66945;BME280;53853;51.982;5.928;2023-02-07T06:49:38;103953.03;;;0.57;76.92
66945;BME280;53853;51.982;5.928;2023-02-07T06:52:08;103953.06;;;0.52;77.29
66945;BME280;53853;51.982;5.928;2023-02-07T06:54:40;103968.81;;;0.52;77.55
66945;BME280;53853;51.982;5.928;2023-02-07T06:57:09;103967.06;;;0.54;77.54
66945;BME280;53853;51.982;5.928;2023-02-07T06:59:39;103973.19;;;0.53;78.20
66945;BME280;53853;51.982;5.928;2023-02-07T07:02:09;103974.03;;;0.53;77.92
66945;BME280;53853;51.982;5.928;2023-02-07T07:04:39;103974.06;;;0.49;77.32
66945;BME280;53853;51.982;5.928;2023-02-07T07:07:08;103982.84;;;0.48;77.07
66945;BME280;53853;51.982;5.928;2023-02-07T07:09:40;103985.47;;;0.43;77.20
66945;BME280;53853;51.982;5.928;2023-02-07T07:12:10;103991.59;;;0.44;77.25
66945;BME280;53853;51.982;5.928;2023-02-07T07:14:39;103986.34;;;0.41;76.92
66945;BME280;53853;51.982;5.928;2023-02-07T07:17:09;103999.47;;;0.39;77.12
66945;BME280;53853;51.982;5.928;2023-02-07T07:19:38;104001.25;;;0.39;77.11
66945;BME280;53853;51.982;5.928;2023-02-07T07:22:08;103998.59;;;0.40;77.49
66945;BME280;53853;51.982;5.928;2023-02-07T07:24:40;103998.59;;;0.42;77.69
66945;BME280;53853;51.982;5.928;2023-02-07T07:27:09;103999.47;;;0.44;78.09
66945;BME280;53853;51.982;5.928;2023-02-07T07:29:39;103987.19;;;0.44;78.07
66945;BME280;53853;51.982;5.928;2023-02-07T07:32:08;103993.34;;;0.48;77.49
66945;BME280;53853;51.982;5.928;2023-02-07T07:34:38;104008.19;;;0.47;77.14
66945;BME280;53853;51.982;5.928;2023-02-07T07:37:08;104001.22;;;0.46;77.23
66945;BME280;53853;51.982;5.928;2023-02-07T07:39:42;103999.44;;;0.48;77.33
66945;BME280;53853;51.982;5.928;2023-02-07T07:42:12;104003.81;;;0.51;77.12
66945;BME280;53853;51.982;5.928;2023-02-07T07:44:59;103998.56;;;0.54;77.16
66945;BME280;53853;51.982;5.928;2023-02-07T07:47:29;103996.78;;;0.54;77.19
66945;BME280;53853;51.982;5.928;2023-02-07T07:49:58;104014.25;;;0.57;76.90
66945;BME280;53853;51.982;5.928;2023-02-07T07:52:28;104004.66;;;0.58;76.79
66945;BME280;53853;51.982;5.928;2023-02-07T07:55:00;104007.28;;;0.59;76.83
66945;BME280;53853;51.982;5.928;2023-02-07T07:57:29;104016.88;;;0.63;76.98
66945;BME280;53853;51.982;5.928;2023-02-07T07:59:59;104010.72;;;0.67;76.96
66945;BME280;53853;51.982;5.928;2023-02-07T08:02:28;104012.47;;;0.71;77.41
66945;BME280;53853;51.982;5.928;2023-02-07T08:04:58;104008.94;;;0.77;77.27
66945;BME280;53853;51.982;5.928;2023-02-07T08:07:27;104011.53;;;0.83;77.45
66945;BME280;53853;51.982;5.928;2023-02-07T08:09:59;104015.00;;;0.84;77.61
66945;BME280;53853;51.982;5.928;2023-02-07T08:12:29;104013.28;;;0.87;77.95
66945;BME280;53853;51.982;5.928;2023-02-07T08:14:58;104017.59;;;0.93;77.74
66945;BME280;53853;51.982;5.928;2023-02-07T08:17:28;104017.59;;;0.96;77.56
66945;BME280;53853;51.982;5.928;2023-02-07T08:19:57;104011.44;;;1.03;77.35
66945;BME280;53853;51.982;5.928;2023-02-07T08:22:27;104007.03;;;1.07;77.21
66945;BME280;53853;51.982;5.928;2023-02-07T08:24:59;103997.34;;;1.14;76.86
66945;BME280;53853;51.982;5.928;2023-02-07T08:27:29;103993.84;;;1.16;76.83
66945;BME280;53853;51.982;5.928;2023-02-07T08:29:58;104002.53;;;1.21;76.61
66945;BME280;53853;51.982;5.928;2023-02-07T08:32:28;103999.03;;;1.25;76.36
66945;BME280;53853;51.982;5.928;2023-02-07T08:34:57;103987.59;;;1.30;76.59
66945;BME280;53853;51.982;5.928;2023-02-07T08:37:27;103999.81;;;1.35;76.50
66945;BME280;53853;51.982;5.928;2023-02-07T08:39:56;103998.88;;;1.42;76.51
66945;BME280;53853;51.982;5.928;2023-02-07T08:42:28;104001.47;;;1.45;76.04
66945;BME280;53853;51.982;5.928;2023-02-07T08:44:58;104002.31;;;1.51;76.02
66945;BME280;53853;51.982;5.928;2023-02-07T08:47:29;104002.28;;;1.54;75.86
66945;BME280;53853;51.982;5.928;2023-02-07T08:49:59;104004.00;;;1.59;75.89
66945;BME280;53853;51.982;5.928;2023-02-07T08:52:29;104002.19;;;1.65;75.51
66945;BME280;53853;51.982;5.928;2023-02-07T08:54:58;104008.34;;;1.65;74.89
66945;BME280;53853;51.982;5.928;2023-02-07T08:57:30;104007.44;;;1.66;74.98
66945;BME280;53853;51.982;5.928;2023-02-07T09:00:00;104011.81;;;1.69;75.08
66945;BME280;53853;51.982;5.928;2023-02-07T09:02:30;104004.75;;;1.72;74.54
66945;BME280;53853;51.982;5.928;2023-02-07T09:04:59;104001.19;;;1.81;74.94
66945;BME280;53853;51.982;5.928;2023-02-07T09:07:29;103999.34;;;1.91;74.75
66945;BME280;53853;51.982;5.928;2023-02-07T09:09:58;104008.91;;;1.95;74.35
66945;BME280;53853;51.982;5.928;2023-02-07T09:12:30;104004.53;;;1.97;74.02
66945;BME280;53853;51.982;5.928;2023-02-07T09:15:00;104000.97;;;2.01;73.60
66945;BME280;53853;51.982;5.928;2023-02-07T09:17:30;104007.09;;;2.05;73.59
66945;BME280;53853;51.982;5.928;2023-02-07T09:19:59;104008.81;;;2.06;73.60
66945;BME280;53853;51.982;5.928;2023-02-07T09:22:29;103995.69;;;2.04;73.53
66945;BME280;53853;51.982;5.928;2023-02-07T09:25:19;104004.38;;;2.09;73.78
66945;BME280;53853;51.982;5.928;2023-02-07T09:27:51;103999.13;;;2.09;73.07
66945;BME280;53853;51.982;5.928;2023-02-07T09:30:21;104004.31;;;2.15;72.89
66945;BME280;53853;51.982;5.928;2023-02-07T09:32:50;104003.44;;;2.18;73.08
66945;BME280;53853;51.982;5.928;2023-02-07T09:35:20;103998.13;;;2.21;73.02
66945;BME280;53853;51.982;5.928;2023-02-07T09:37:51;103984.00;;;2.27;72.70
66945;BME280;53853;51.982;5.928;2023-02-07T09:40:20;103989.31;;;2.25;72.65
66945;BME280;53853;51.982;5.928;2023-02-07T09:42:55;103985.81;;;2.23;71.75
66945;BME280;53853;51.982;5.928;2023-02-07T09:45:28;103979.72;;;2.20;71.82
66945;BME280;53853;51.982;5.928;2023-02-07T09:48:00;103975.28;;;2.25;71.85
66945;BME280;53853;51.982;5.928;2023-02-07T09:50:33;103975.28;;;2.23;71.43
66945;BME280;53853;51.982;5.928;2023-02-07T09:53:10;103981.44;;;2.24;71.63
66945;BME280;53853;51.982;5.928;2023-02-07T09:55:43;103975.31;;;2.22;71.08
66945;BME280;53853;51.982;5.928;2023-02-07T09:58:19;103984.09;;;2.22;71.65
66945;BME280;53853;51.982;5.928;2023-02-07T10:00:51;103984.91;;;2.29;71.52
66945;BME280;53853;51.982;5.928;2023-02-07T10:03:22;103978.69;;;2.31;71.12
66945;BME280;53853;51.982;5.928;2023-02-07T10:05:55;103983.03;;;2.37;71.11
66945;BME280;53853;51.982;5.928;2023-02-07T10:08:27;103978.56;;;2.42;70.93
66945;BME280;53853;51.982;5.928;2023-02-07T10:11:02;103974.19;;;2.44;70.93
66945;BME280;53853;51.982;5.928;2023-02-07T10:16:26;103984.47;;;2.63;71.21
66945;BME280;53853;51.982;5.928;2023-02-07T10:18:58;103985.34;;;2.63;70.75
66945;BME280;53853;51.982;5.928;2023-02-07T10:21:30;103982.63;;;2.68;70.55
66945;BME280;53853;51.982;5.928;2023-02-07T10:24:06;103987.81;;;2.74;70.79
66945;BME280;53853;51.982;5.928;2023-02-07T10:26:40;103994.78;;;2.80;69.88
66945;BME280;53853;51.982;5.928;2023-02-07T10:29:17;103989.47;;;2.83;69.74
66945;BME280;53853;51.982;5.928;2023-02-07T10:31:53;103998.19;;;2.86;70.28
66945;BME280;53853;51.982;5.928;2023-02-07T10:34:24;104000.75;;;2.91;69.90
66945;BME280;53853;51.982;5.928;2023-02-07T10:36:56;103996.25;;;2.98;69.84
66945;BME280;53853;51.982;5.928;2023-02-07T10:39:28;103992.69;;;3.03;69.31
66945;BME280;53853;51.982;5.928;2023-02-07T10:41:59;103990.81;;;3.10;69.44
66945;BME280;53853;51.982;5.928;2023-02-07T10:44:29;103993.38;;;3.15;69.30
66945;BME280;53853;51.982;5.928;2023-02-07T10:47:01;103998.66;;;3.15;68.78
66945;BME280;53853;51.982;5.928;2023-02-07T10:49:34;103995.00;;;3.23;69.10
66945;BME280;53853;51.982;5.928;2023-02-07T10:52:05;103996.63;;;3.32;69.33
66945;BME280;53853;51.982;5.928;2023-02-07T10:54:48;103990.44;;;3.35;68.22
66945;BME280;53853;51.982;5.928;2023-02-07T10:57:18;103996.59;;;3.35;68.53
66945;BME280;53853;51.982;5.928;2023-02-07T10:59:48;103993.81;;;3.43;68.84
66945;BME280;53853;51.982;5.928;2023-02-07T11:02:31;103991.13;;;3.46;68.81
66945;BME280;53853;51.982;5.928;2023-02-07T11:05:03;103995.34;;;3.56;69.15
66945;BME280;53853;51.982;5.928;2023-02-07T11:07:34;104002.31;;;3.60;67.96
66945;BME280;53853;51.982;5.928;2023-02-07T11:10:13;103990.78;;;3.66;67.51
66945;BME280;53853;51.982;5.928;2023-02-07T11:12:43;103991.50;;;3.76;67.94
66945;BME280;53853;51.982;5.928;2023-02-07T11:15:14;103980.06;;;3.75;66.70
66945;BME280;53853;51.982;5.928;2023-02-07T11:17:48;103983.53;;;3.77;66.55
66945;BME280;53853;51.982;5.928;2023-02-07T11:20:20;103988.75;;;3.80;66.73
66945;BME280;53853;51.982;5.928;2023-02-07T11:22:51;103970.31;;;3.79;66.57
66945;BME280;53853;51.982;5.928;2023-02-07T11:25:26;103986.97;;;3.83;66.60
66945;BME280;53853;51.982;5.928;2023-02-07T11:27:56;103975.50;;;3.85;66.19
66945;BME280;53853;51.982;5.928;2023-02-07T11:30:27;103965.78;;;3.87;65.86
66945;BME280;53853;51.982;5.928;2023-02-07T11:33:01;103973.56;;;3.95;66.67
66945;BME280;53853;51.982;5.928;2023-02-07T11:35:31;103978.69;;;4.03;66.62
66945;BME280;53853;51.982;5.928;2023-02-07T11:38:02;103971.41;;;4.14;67.04
66945;BME280;53853;51.982;5.928;2023-02-07T11:40:35;103966.06;;;4.17;66.01
66945;BME280;53853;51.982;5.928;2023-02-07T11:43:08;103961.50;;;4.27;66.90
66945;BME280;53853;51.982;5.928;2023-02-07T11:45:40;103966.69;;;4.31;65.89
66945;BME280;53853;51.982;5.928;2023-02-07T11:48:17;103959.50;;;4.38;65.67
66945;BME280;53853;51.982;5.928;2023-02-07T11:50:48;103965.44;;;4.49;65.69
66945;BME280;53853;51.982;5.928;2023-02-07T11:53:21;103957.41;;;4.54;64.96
66945;BME280;53853;51.982;5.928;2023-02-07T11:55:52;103948.47;;;4.60;65.51
66945;BME280;53853;51.982;5.928;2023-02-07T11:58:28;103950.22;;;4.61;64.05
66945;BME280;53853;51.982;5.928;2023-02-07T12:01:00;103947.50;;;4.64;64.25
66945;BME280;53853;51.982;5.928;2023-02-07T12:03:39;103949.22;;;4.66;63.54
66945;BME280;53853;51.982;5.928;2023-02-07T12:06:12;103947.34;;;4.71;65.23
66945;BME280;53853;51.982;5.928;2023-02-07T12:08:43;103946.38;;;4.74;63.98
66945;BME280;53853;51.982;5.928;2023-02-07T12:11:13;103932.28;;;4.75;62.99
66945;BME280;53853;51.982;5.928;2023-02-07T12:13:45;103937.47;;;4.78;63.17
66945;BME280;53853;51.982;5.928;2023-02-07T12:16:16;103935.66;;;4.80;62.19
66945;BME280;53853;51.982;5.928;2023-02-07T12:18:50;103928.59;;;4.82;63.21
66945;BME280;53853;51.982;5.928;2023-02-07T12:21:23;103920.69;;;4.81;62.55
66945;BME280;53853;51.982;5.928;2023-02-07T12:23:56;103917.06;;;4.85;62.98
66945;BME280;53853;51.982;5.928;2023-02-07T12:26:28;103922.34;;;4.85;62.36
66945;BME280;53853;51.982;5.928;2023-02-07T12:29:06;103919.53;;;4.93;62.64
66945;BME280;53853;51.982;5.928;2023-02-07T12:31:39;103920.31;;;4.96;62.30
66945;BME280;53853;51.982;5.928;2023-02-07T12:34:16;103927.19;;;5.03;63.18
66945;BME280;53853;51.982;5.928;2023-02-07T12:36:49;103928.78;;;5.11;61.66
66945;BME280;53853;51.982;5.928;2023-02-07T12:39:23;103927.09;;;5.08;61.22
66945;BME280;53853;51.982;5.928;2023-02-07T12:41:58;103927.06;;;5.10;61.83
66945;BME280;53853;51.982;5.928;2023-02-07T12:44:32;103928.78;;;5.11;61.94
66945;BME280;53853;51.982;5.928;2023-02-07T12:47:03;103935.69;;;5.16;62.47
66945;BME280;53853;51.982;5.928;2023-02-07T12:49:45;103937.38;;;5.20;62.65
66945;BME280;53853;51.982;5.928;2023-02-07T12:52:19;103918.00;;;5.18;62.53
66945;BME280;53853;51.982;5.928;2023-02-07T12:54:56;103934.06;;;5.11;61.82
66945;BME280;53853;51.982;5.928;2023-02-07T12:57:29;103920.81;;;5.12;61.43
66945;BME280;53853;51.982;5.928;2023-02-07T13:00:04;103921.59;;;5.17;62.67
66945;BME280;53853;51.982;5.928;2023-02-07T13:02:42;103918.78;;;5.23;60.31
66945;BME280;53853;51.982;5.928;2023-02-07T13:05:24;103912.50;;;5.28;61.28
66945;BME280;53853;51.982;5.928;2023-02-07T13:08:00;103909.72;;;5.32;60.99
66945;BME280;53853;51.982;5.928;2023-02-07T13:10:45;103900.91;;;5.33;60.74
66945;BME280;53853;51.982;5.928;2023-02-07T13:13:19;103899.97;;;5.34;59.91
66945;BME280;53853;51.982;5.928;2023-02-07T13:15:51;103900.75;;;5.39;61.74
66945;BME280;53853;51.982;5.928;2023-02-07T13:18:22;103901.56;;;5.41;61.69
66945;BME280;53853;51.982;5.928;2023-02-07T13:21:00;103905.84;;;5.45;61.30
66945;BME280;53853;51.982;5.928;2023-02-07T13:23:33;103906.78;;;5.44;61.07
66945;BME280;53853;51.982;5.928;2023-02-07T13:26:05;103908.41;;;5.49;61.17
66945;BME280;53853;51.982;5.928;2023-02-07T13:28:38;103906.03;;;5.39;59.93
66945;BME280;53853;51.982;5.928;2023-02-07T13:31:10;103908.56;;;5.44;60.95